createdAt,value
2022-11-12T00:00:53.874Z,21.42
2022-11-12T00:03:21.130Z,21.63
2022-11-12T00:05:49.611Z,19.20
2022-11-12T00:08:16.860Z,21.25
2022-11-12T00:10:43.597Z,19.73
2022-11-12T00:13:10.211Z,22.13
2022-11-12T00:15:36.914Z,18.58
2022-11-12T00:18:03.933Z,19.65
2022-11-12T00:20:30.586Z,20.40
2022-11-12T00:22:57.211Z,18.50
2022-11-12T00:25:23.923Z,19.23
2022-11-12T00:27:50.544Z,20.00
2022-11-12T00:30:17.304Z,18.33
2022-11-12T00:32:43.964Z,19.55
2022-11-12T00:35:13.644Z,20.80
2022-11-12T00:37:40.956Z,20.25
2022-11-12T00:40:08.579Z,19.60
2022-11-12T00:42:35.226Z,22.75
2022-11-12T00:45:02.047Z,21.33
2022-11-12T00:47:28.679Z,21.15
2022-11-12T00:49:55.349Z,20.92
2022-11-12T00:52:22.072Z,19.17
2022-11-12T00:54:48.825Z,22.05
2022-11-12T00:57:15.449Z,19.45
2022-11-12T00:59:42.112Z,21.23
2022-11-12T01:02:08.748Z,21.85
2022-11-12T01:04:35.380Z,20.40
2022-11-12T01:07:02.087Z,20.70
2022-11-12T01:09:28.797Z,20.70
2022-11-12T01:11:55.480Z,21.27
2022-11-12T01:14:22.103Z,22.08
2022-11-12T01:16:48.832Z,23.70
2022-11-12T01:19:15.531Z,20.88
2022-11-12T01:21:44.203Z,21.45
2022-11-12T01:24:11.147Z,20.75
2022-11-12T01:26:38.656Z,23.45
2022-11-12T01:29:05.762Z,23.63
2022-11-12T01:31:34.921Z,19.80
2022-11-12T01:34:04.759Z,21.55
2022-11-12T01:36:37.747Z,21.20
2022-11-12T01:39:08.994Z,20.30
2022-11-12T01:41:38.083Z,19.55
2022-11-12T01:44:17.961Z,19.90
2022-11-12T01:46:56.912Z,20.40
2022-11-12T01:49:52.386Z,19.30
2022-11-12T01:52:42.959Z,19.95
2022-11-12T01:55:20.382Z,20.02
2022-11-12T01:57:56.774Z,19.88
2022-11-12T02:00:23.479Z,20.20
2022-11-12T02:02:54.531Z,20.10
2022-11-12T02:05:22.183Z,20.92
2022-11-12T02:07:49.406Z,23.50
2022-11-12T02:10:16.064Z,21.00
2022-11-12T02:13:01.955Z,22.05
2022-11-12T02:15:28.901Z,20.08
2022-11-12T02:17:55.612Z,22.88
2022-11-12T02:20:22.311Z,22.55
2022-11-12T02:22:48.933Z,24.60
2022-11-12T02:25:22.520Z,21.17
2022-11-12T02:27:51.871Z,19.90
2022-11-12T02:30:19.460Z,20.73
2022-11-12T02:32:46.074Z,19.20
2022-11-12T02:35:12.712Z,20.73
2022-11-12T02:37:39.401Z,18.50
2022-11-12T02:40:06.914Z,18.10
2022-11-12T02:42:33.531Z,19.55
2022-11-12T02:45:00.182Z,19.25
2022-11-12T02:47:26.867Z,22.70
2022-11-12T02:49:53.559Z,21.30
2022-11-12T02:52:20.204Z,22.95
2022-11-12T02:54:46.844Z,22.65
2022-11-12T02:57:13.477Z,23.17
2022-11-12T02:59:40.123Z,24.25
2022-11-12T03:02:06.733Z,22.65
2022-11-12T03:04:33.373Z,21.70
2022-11-12T03:07:00.021Z,22.85
2022-11-12T03:09:27.222Z,21.52
2022-11-12T03:11:54.008Z,24.45
2022-11-12T03:14:20.704Z,22.58
2022-11-12T03:16:47.355Z,21.02
2022-11-12T03:19:13.968Z,20.60
2022-11-12T03:21:40.579Z,21.92
2022-11-12T03:24:07.300Z,18.50
2022-11-12T03:26:35.975Z,17.98
2022-11-12T03:29:03.338Z,20.40
2022-11-12T03:31:30.076Z,17.17
2022-11-12T03:33:56.722Z,17.98
2022-11-12T03:36:23.416Z,17.17
2022-11-12T03:38:50.072Z,18.23
2022-11-12T03:41:16.707Z,19.10
2022-11-12T03:43:43.405Z,20.00
2022-11-12T03:46:10.020Z,20.33
2022-11-12T03:48:36.702Z,19.40
2022-11-12T03:51:03.351Z,20.27
2022-11-12T03:53:29.979Z,18.92
2022-11-12T03:55:56.659Z,20.02
2022-11-12T03:58:23.426Z,21.30
2022-11-12T04:00:50.190Z,19.38
2022-11-12T04:03:16.835Z,19.52
2022-11-12T04:06:03.751Z,20.65
2022-11-12T04:08:36.279Z,20.23
2022-11-12T04:11:08.963Z,18.60
2022-11-12T04:13:38.640Z,20.15
2022-11-12T04:16:32.875Z,20.20
2022-11-12T04:19:19.850Z,23.15
2022-11-12T04:21:51.364Z,21.85
2022-11-12T04:24:37.443Z,19.13
2022-11-12T04:27:04.419Z,23.10
2022-11-12T04:29:50.135Z,21.55
2022-11-12T04:32:16.792Z,20.80
2022-11-12T04:34:43.738Z,20.08
2022-11-12T04:37:10.430Z,19.52
2022-11-12T04:39:37.058Z,20.67
2022-11-12T04:42:22.299Z,20.17
2022-11-12T04:45:04.959Z,20.10
2022-11-12T04:47:33.321Z,20.20
2022-11-12T04:50:00.935Z,21.33
2022-11-12T04:52:29.095Z,20.17
2022-11-12T04:54:56.449Z,20.65
2022-11-12T04:57:23.234Z,19.17
2022-11-12T04:59:49.935Z,21.20
2022-11-12T05:02:17.751Z,21.67
2022-11-12T05:04:44.490Z,25.20
2022-11-12T05:07:11.385Z,22.80
2022-11-12T05:09:38.724Z,21.50
2022-11-12T05:12:05.658Z,20.88
2022-11-12T05:14:32.369Z,23.95
2022-11-12T05:16:59.068Z,23.23
2022-11-12T05:19:25.708Z,24.38
2022-11-12T05:22:17.387Z,24.00
2022-11-12T05:24:54.051Z,22.73
2022-11-12T05:27:21.399Z,25.65
2022-11-12T05:29:48.027Z,26.00
2022-11-12T05:32:15.864Z,27.00
2022-11-12T05:34:42.633Z,26.17
2022-11-12T05:37:10.399Z,24.52
2022-11-12T05:39:37.323Z,30.15
2022-11-12T05:42:13.521Z,27.73
2022-11-12T05:44:41.239Z,26.42
2022-11-12T05:47:07.938Z,22.27
2022-11-12T05:49:34.587Z,21.42
2022-11-12T05:52:01.285Z,22.70
2022-11-12T05:54:28.010Z,17.80
2022-11-12T05:56:54.680Z,19.98
2022-11-12T05:59:22.296Z,18.60
2022-11-12T06:01:48.939Z,19.95
2022-11-12T06:04:16.682Z,22.77
2022-11-12T06:06:44.000Z,18.58
2022-11-12T06:09:10.802Z,18.85
2022-11-12T06:11:37.786Z,18.73
2022-11-12T06:14:05.538Z,17.95
2022-11-12T06:16:32.563Z,19.27
2022-11-12T06:18:59.450Z,19.50
2022-11-12T06:21:27.962Z,17.67
2022-11-12T06:23:57.683Z,17.30
2022-11-12T06:26:26.188Z,18.05
2022-11-12T06:28:53.047Z,15.90
2022-11-12T06:31:20.342Z,25.42
2022-11-12T06:33:47.795Z,22.75
2022-11-12T06:36:16.068Z,18.30
2022-11-12T06:38:43.236Z,22.35
2022-11-12T06:41:11.782Z,20.15
2022-11-12T06:43:39.122Z,20.75
2022-11-12T06:46:09.179Z,19.27
2022-11-12T06:48:35.899Z,17.73
2022-11-12T06:51:07.671Z,23.27
2022-11-12T06:53:34.391Z,16.25
2022-11-12T06:56:05.784Z,18.10
2022-11-12T06:58:32.745Z,16.38
2022-11-12T07:01:11.742Z,16.00
2022-11-12T07:03:39.232Z,18.73
2022-11-12T07:06:08.370Z,15.27
2022-11-12T07:08:35.386Z,19.80
2022-11-12T07:11:02.172Z,15.90
2022-11-12T07:13:31.702Z,17.50
2022-11-12T07:16:00.122Z,27.17
2022-11-12T07:18:27.553Z,20.10
2022-11-12T07:21:03.076Z,30.10
2022-11-12T07:26:01.964Z,21.95
2022-11-12T07:28:29.344Z,21.65
2022-11-12T07:31:00.394Z,18.52
2022-11-12T07:33:27.767Z,20.85
2022-11-12T07:36:18.530Z,17.52
2022-11-12T07:38:45.890Z,16.48
2022-11-12T07:41:16.342Z,20.10
2022-11-12T07:43:45.967Z,22.67
2022-11-12T07:46:18.151Z,18.55
2022-11-12T07:48:46.227Z,22.60
2022-11-12T07:51:16.510Z,19.02
2022-11-12T07:53:44.060Z,20.67
2022-11-12T07:56:12.459Z,15.50
2022-11-12T07:58:39.266Z,17.42
2022-11-12T08:01:22.536Z,18.25
2022-11-12T08:03:49.178Z,14.60
2022-11-12T08:06:15.830Z,16.15
2022-11-12T08:08:42.456Z,15.50
2022-11-12T08:11:09.320Z,17.60
2022-11-12T08:13:35.975Z,16.83
2022-11-12T08:16:02.607Z,16.77
2022-11-12T08:18:30.074Z,19.30
2022-11-12T08:21:01.198Z,20.13
2022-11-12T08:23:28.571Z,18.85
2022-11-12T08:26:02.719Z,17.70
2022-11-12T08:28:30.418Z,16.73
2022-11-12T08:30:57.384Z,18.88
2022-11-12T08:33:24.216Z,15.07
2022-11-12T08:35:50.899Z,14.60
2022-11-12T08:38:17.998Z,17.58
2022-11-12T08:40:44.624Z,16.52
2022-11-12T08:43:11.579Z,16.88
2022-11-12T08:45:39.634Z,14.82
2022-11-12T08:48:09.275Z,16.63
2022-11-12T08:50:36.335Z,18.35
2022-11-12T08:53:05.613Z,17.85
2022-11-12T08:55:33.498Z,18.00
2022-11-12T08:58:02.338Z,17.05
2022-11-12T09:00:30.673Z,22.73
2022-11-12T09:03:00.384Z,15.82
2022-11-12T09:05:27.277Z,19.55
2022-11-12T09:07:58.335Z,19.15
2022-11-12T09:10:25.610Z,15.27
2022-11-12T09:12:52.839Z,18.55
2022-11-12T09:15:36.833Z,15.38
2022-11-12T09:18:06.191Z,16.67
2022-11-12T09:20:32.986Z,15.30
2022-11-12T09:23:04.642Z,13.60
2022-11-12T09:25:31.821Z,15.13
2022-11-12T09:27:58.496Z,15.00
2022-11-12T09:30:25.202Z,15.65
2022-11-12T09:32:58.069Z,18.73
2022-11-12T09:35:24.927Z,15.65
2022-11-12T09:37:51.570Z,13.68
2022-11-12T09:40:19.587Z,17.20
2022-11-12T09:42:53.457Z,14.73
2022-11-12T09:45:28.074Z,12.00
2022-11-12T09:47:58.151Z,11.18
2022-11-12T09:50:37.159Z,14.10
2022-11-12T09:53:33.192Z,11.48
2022-11-12T09:56:00.761Z,11.50
2022-11-12T09:58:27.943Z,13.18
2022-11-12T10:01:25.709Z,13.75
2022-11-12T10:04:14.107Z,20.98
2022-11-12T10:06:50.023Z,14.27
2022-11-12T10:09:20.290Z,15.43
2022-11-12T10:12:30.510Z,13.88
2022-11-12T10:15:23.037Z,18.40
2022-11-12T10:17:58.555Z,16.15
2022-11-12T10:20:27.982Z,16.42
2022-11-12T10:23:10.077Z,16.38
2022-11-12T10:25:37.725Z,16.63
2022-11-12T10:28:26.624Z,17.58
2022-11-12T10:31:00.999Z,15.70
2022-11-12T10:33:33.045Z,14.63
2022-11-12T10:36:17.688Z,18.75
2022-11-12T10:38:45.543Z,20.05
2022-11-12T10:41:41.503Z,21.45
2022-11-12T10:44:14.823Z,17.67
2022-11-12T10:46:41.495Z,20.83
2022-11-12T10:49:13.849Z,20.42
2022-11-12T10:51:40.791Z,20.63
2022-11-12T10:54:36.827Z,21.15
2022-11-12T10:57:23.510Z,20.23
2022-11-12T11:00:16.850Z,19.20
2022-11-12T11:02:51.804Z,16.75
2022-11-12T11:05:54.704Z,13.35
2022-11-12T11:08:50.889Z,17.13
2022-11-12T11:11:17.640Z,21.13
2022-11-12T11:13:45.951Z,15.35
2022-11-12T11:16:18.082Z,16.40
2022-11-12T11:18:54.653Z,15.40
2022-11-12T11:21:28.801Z,19.48
2022-11-12T11:23:58.091Z,18.30
2022-11-12T11:26:47.289Z,19.85
2022-11-12T11:29:34.848Z,27.17
2022-11-12T11:32:16.396Z,31.25
2022-11-12T11:35:21.304Z,37.17
2022-11-12T11:38:13.107Z,20.63
2022-11-12T11:40:59.663Z,25.40
2022-11-12T11:43:33.236Z,22.90
2022-11-12T11:46:10.491Z,20.48
2022-11-12T11:49:32.076Z,22.50
2022-11-12T11:52:20.236Z,21.42
2022-11-12T11:55:05.334Z,18.33
2022-11-12T11:58:10.880Z,27.17
2022-11-12T12:00:47.729Z,27.50
2022-11-12T12:03:20.776Z,18.38
2022-11-12T12:06:20.189Z,22.45
2022-11-12T12:09:24.439Z,19.50
2022-11-12T12:12:16.491Z,19.40
2022-11-12T12:15:03.582Z,21.25
2022-11-12T12:18:05.560Z,21.10
2022-11-12T12:20:47.941Z,19.08
2022-11-12T12:23:29.752Z,24.63
2022-11-12T12:26:00.405Z,21.25
2022-11-12T12:28:39.236Z,18.13
2022-11-12T12:31:11.010Z,22.08
2022-11-12T12:33:50.209Z,18.80
2022-11-12T12:36:37.229Z,19.33
2022-11-12T12:39:27.355Z,22.92
2022-11-12T12:41:58.672Z,20.45
2022-11-12T12:44:47.476Z,19.85
2022-11-12T12:47:14.885Z,25.13
2022-11-12T12:49:41.961Z,22.10
2022-11-12T12:52:12.859Z,22.98
2022-11-12T12:54:39.451Z,22.63
2022-11-12T12:57:25.947Z,21.88
2022-11-12T13:00:29.460Z,25.08
2022-11-12T13:02:56.266Z,23.50
2022-11-12T13:05:43.235Z,21.02
2022-11-12T13:08:13.149Z,19.45
2022-11-12T13:10:39.755Z,23.02
2022-11-12T13:13:18.520Z,19.67
2022-11-12T13:15:47.680Z,19.70
2022-11-12T13:18:39.629Z,22.38
2022-11-12T13:21:20.538Z,24.30
2022-11-12T13:24:07.632Z,21.40
2022-11-12T13:26:47.054Z,19.02
2022-11-12T13:29:23.460Z,26.20
2022-11-12T13:31:50.365Z,22.83
2022-11-12T13:34:22.420Z,18.92
2022-11-12T13:37:03.184Z,25.67
2022-11-12T13:39:32.947Z,23.13
2022-11-12T13:42:18.174Z,23.15
2022-11-12T13:44:45.152Z,23.67
2022-11-12T13:47:16.647Z,22.77
2022-11-12T13:49:44.414Z,21.08
2022-11-12T13:52:14.411Z,27.40
2022-11-12T13:54:41.366Z,20.88
2022-11-12T13:57:20.156Z,20.70
2022-11-12T13:59:47.192Z,21.55
2022-11-12T14:02:21.566Z,18.90
2022-11-12T14:04:48.399Z,23.45
2022-11-12T14:07:27.930Z,20.02
2022-11-12T14:10:12.083Z,26.10
2022-11-12T14:12:41.769Z,22.67
2022-11-12T14:15:42.048Z,21.92
2022-11-12T14:18:18.177Z,23.80
2022-11-12T14:20:44.908Z,21.95
2022-11-12T14:23:15.811Z,21.35
2022-11-12T14:25:52.652Z,24.48
2022-11-12T14:28:37.577Z,22.83
2022-11-12T14:31:04.959Z,22.17
2022-11-12T14:33:32.607Z,24.02
2022-11-12T14:36:19.100Z,21.77
2022-11-12T14:38:52.221Z,19.33
2022-11-12T14:41:23.407Z,23.85
2022-11-12T14:44:11.361Z,22.13
2022-11-12T14:46:48.383Z,24.88
2022-11-12T14:49:36.551Z,32.03
2022-11-12T14:52:29.642Z,24.90
2022-11-12T14:55:06.695Z,26.30
2022-11-12T14:57:33.564Z,28.40
2022-11-12T15:00:00.189Z,34.70
2022-11-12T15:02:47.337Z,25.30
2022-11-12T15:05:20.896Z,23.75
2022-11-12T15:08:03.790Z,21.95
2022-11-12T15:10:41.528Z,27.02
2022-11-12T15:13:09.660Z,23.63
2022-11-12T15:15:39.646Z,23.88
2022-11-12T15:18:08.120Z,25.90
2022-11-12T15:20:34.768Z,41.58
2022-11-12T15:23:01.786Z,31.08
2022-11-12T15:25:32.559Z,29.38
2022-11-12T15:28:21.547Z,32.63
2022-11-12T15:31:21.178Z,36.10
2022-11-12T15:33:47.850Z,43.30
2022-11-12T15:36:20.086Z,27.05
2022-11-12T15:38:54.637Z,26.35
2022-11-12T15:41:27.584Z,41.15
2022-11-12T15:43:54.299Z,24.67
2022-11-12T15:46:20.950Z,26.27
2022-11-12T15:48:52.851Z,29.05
2022-11-12T15:51:22.425Z,26.98
2022-11-12T15:53:49.114Z,28.95
2022-11-12T15:56:18.082Z,21.75
2022-11-12T15:58:45.150Z,27.80
2022-11-12T16:01:12.516Z,26.67
2022-11-12T16:03:39.272Z,30.05
2022-11-12T16:06:09.389Z,22.10
2022-11-12T16:08:36.286Z,28.05
2022-11-12T16:11:03.177Z,25.88
2022-11-12T16:13:33.348Z,28.80
2022-11-12T16:16:03.107Z,33.15
2022-11-12T16:18:29.745Z,26.25
2022-11-12T16:20:56.396Z,25.50
2022-11-12T16:23:23.046Z,26.38
2022-11-12T16:25:49.786Z,32.78
2022-11-12T16:28:17.992Z,29.83
2022-11-12T16:30:45.089Z,25.52
2022-11-12T16:33:12.850Z,28.92
2022-11-12T16:35:39.640Z,27.55
2022-11-12T16:38:14.178Z,31.73
2022-11-12T16:40:40.965Z,24.08
2022-11-12T16:43:07.627Z,23.45
2022-11-12T16:45:37.968Z,27.58
2022-11-12T16:48:20.192Z,26.30
2022-11-12T16:50:47.614Z,24.05
2022-11-12T16:53:14.579Z,23.38
2022-11-12T16:55:41.555Z,20.50
2022-11-12T16:58:13.327Z,21.10
2022-11-12T17:00:41.496Z,20.92
2022-11-12T17:03:12.166Z,23.90
2022-11-12T17:05:38.906Z,27.90
2022-11-12T17:08:05.679Z,25.45
2022-11-12T17:10:32.336Z,25.38
2022-11-12T17:12:59.101Z,24.63
2022-11-12T17:15:25.764Z,20.75
2022-11-12T17:17:55.651Z,28.08
2022-11-12T17:20:22.383Z,33.88
2022-11-12T17:22:49.011Z,26.67
2022-11-12T17:25:15.683Z,27.65
2022-11-12T17:27:42.308Z,24.80
2022-11-12T17:30:10.155Z,23.73
2022-11-12T17:32:36.783Z,24.30
2022-11-12T17:35:03.756Z,25.27
2022-11-12T17:37:30.404Z,25.65
2022-11-12T17:39:57.059Z,24.63
2022-11-12T17:42:23.760Z,29.00
2022-11-12T17:44:50.515Z,22.70
2022-11-12T17:47:17.158Z,27.05
2022-11-12T17:49:43.835Z,21.63
2022-11-12T17:52:10.545Z,22.95
2022-11-12T17:54:37.268Z,23.83
2022-11-12T17:57:04.364Z,27.92
2022-11-12T17:59:31.001Z,25.40
2022-11-12T18:01:57.702Z,22.70
2022-11-12T18:04:25.753Z,30.10
2022-11-12T18:06:54.599Z,23.45
2022-11-12T18:09:21.230Z,25.05
2022-11-12T18:11:50.216Z,32.13
2022-11-12T18:14:17.248Z,26.73
2022-11-12T18:16:44.151Z,24.65
2022-11-12T18:19:12.520Z,33.53
2022-11-12T18:21:40.311Z,24.73
2022-11-12T18:24:07.921Z,26.10
2022-11-12T18:26:34.615Z,24.55
2022-11-12T18:29:01.303Z,27.83
2022-11-12T18:31:28.373Z,26.58
2022-11-12T18:33:56.106Z,29.80
2022-11-12T18:36:25.147Z,26.83
2022-11-12T18:38:52.794Z,24.08
2022-11-12T18:41:25.627Z,28.55
2022-11-12T18:43:55.968Z,23.15
2022-11-12T18:46:23.217Z,22.00
2022-11-12T18:48:50.316Z,24.13
2022-11-12T18:51:18.639Z,23.23
2022-11-12T18:53:46.234Z,25.48
2022-11-12T18:56:18.027Z,26.02
2022-11-12T18:58:45.010Z,24.73
2022-11-12T19:01:15.958Z,22.80
2022-11-12T19:03:43.510Z,23.85
2022-11-12T19:06:12.398Z,28.38
2022-11-12T19:08:39.125Z,28.02
2022-11-12T19:11:08.194Z,26.63
2022-11-12T19:13:36.041Z,31.08
2022-11-12T19:16:11.901Z,29.45
2022-11-12T19:18:40.157Z,25.13
2022-11-12T19:21:24.488Z,24.85
2022-11-12T19:23:54.521Z,22.17
2022-11-12T19:26:22.211Z,29.70
2022-11-12T19:28:49.166Z,21.75
2022-11-12T19:31:20.686Z,21.50
2022-11-12T19:33:47.574Z,22.65
2022-11-12T19:36:16.618Z,23.13
2022-11-12T19:38:43.306Z,22.85
2022-11-12T19:41:17.744Z,19.55
2022-11-12T19:43:45.973Z,20.63
2022-11-12T19:46:12.679Z,20.02
2022-11-12T19:48:39.524Z,23.15
2022-11-12T19:51:08.006Z,27.38
2022-11-12T19:53:37.151Z,24.58
2022-11-12T19:58:34.505Z,21.17
2022-11-12T20:01:05.219Z,20.17
2022-11-12T20:03:32.115Z,21.38
2022-11-12T20:06:06.970Z,24.60
2022-11-12T20:08:33.830Z,20.20
2022-11-12T20:11:01.040Z,20.70
2022-11-12T20:13:27.879Z,19.92
2022-11-12T20:15:54.567Z,22.52
2022-11-12T20:18:21.251Z,22.83
2022-11-12T20:20:53.068Z,27.70
2022-11-12T20:23:19.780Z,21.80
2022-11-12T20:25:46.472Z,23.52
2022-11-12T20:28:13.240Z,20.85
2022-11-12T20:30:39.952Z,24.70
2022-11-12T20:33:06.670Z,22.75
2022-11-12T20:35:37.242Z,19.55
2022-11-12T20:38:04.487Z,23.50
2022-11-12T20:40:32.026Z,22.77
2022-11-12T20:42:58.799Z,27.08
2022-11-12T20:45:25.488Z,23.40
2022-11-12T20:47:52.136Z,21.35
2022-11-12T20:50:18.834Z,21.55
2022-11-12T20:52:45.483Z,21.20
2022-11-12T20:55:12.136Z,19.50
2022-11-12T20:57:38.837Z,23.00
2022-11-12T21:00:06.045Z,20.88
2022-11-12T21:02:32.659Z,19.17
2022-11-12T21:04:59.312Z,19.23
2022-11-12T21:07:25.963Z,20.88
2022-11-12T21:09:52.591Z,17.75
2022-11-12T21:12:19.196Z,23.52
2022-11-12T21:14:50.219Z,23.73
2022-11-12T21:17:17.358Z,27.55
2022-11-12T21:19:44.001Z,19.35
2022-11-12T21:22:10.658Z,24.20
2022-11-12T21:24:37.294Z,20.30
2022-11-12T21:27:03.938Z,24.27
2022-11-12T21:29:30.578Z,21.70
2022-11-12T21:31:57.186Z,22.17
2022-11-12T21:34:23.892Z,25.98
2022-11-12T21:36:50.555Z,30.95
2022-11-12T21:39:17.189Z,26.42
2022-11-12T21:41:43.835Z,22.25
2022-11-12T21:44:10.501Z,23.17
2022-11-12T21:46:37.654Z,23.35
2022-11-12T21:49:04.639Z,21.35
2022-11-12T21:51:32.961Z,22.17
2022-11-12T21:54:05.318Z,18.60
2022-11-12T21:56:34.057Z,19.25
2022-11-12T21:59:01.582Z,20.13
2022-11-12T22:01:30.032Z,19.48
2022-11-12T22:03:58.064Z,23.77
2022-11-12T22:06:29.398Z,19.70
2022-11-12T22:08:57.538Z,20.52
2022-11-12T22:11:25.344Z,25.23
2022-11-12T22:13:52.066Z,21.77
2022-11-12T22:16:21.084Z,22.63
2022-11-12T22:18:50.119Z,19.83
2022-11-12T22:21:19.373Z,18.63
2022-11-12T22:23:46.143Z,22.70
2022-11-12T22:26:21.971Z,21.25
2022-11-12T22:28:49.047Z,21.60
2022-11-12T22:31:21.270Z,22.15
2022-11-12T22:33:48.295Z,18.30
2022-11-12T22:36:17.051Z,24.63
2022-11-12T22:38:46.302Z,22.77
2022-11-12T22:43:47.927Z,22.77
2022-11-12T22:46:19.431Z,22.13
2022-11-12T22:48:46.249Z,24.98
2022-11-12T22:51:24.025Z,26.42
2022-11-12T22:54:01.463Z,24.05
2022-11-12T22:56:29.090Z,27.98
2022-11-12T22:58:56.535Z,28.73
2022-11-12T23:01:30.934Z,31.38
2022-11-12T23:03:59.407Z,31.30
2022-11-12T23:06:27.136Z,31.33
2022-11-12T23:08:54.685Z,31.70
2022-11-12T23:11:21.775Z,28.90
2022-11-12T23:13:49.054Z,26.15
2022-11-12T23:16:18.152Z,29.33
2022-11-12T23:18:45.233Z,31.42
2022-11-12T23:21:14.459Z,26.70
2022-11-12T23:26:23.126Z,26.00
2022-11-12T23:28:49.861Z,36.08
2022-11-12T23:31:21.699Z,42.90
2022-11-12T23:33:52.897Z,46.40
2022-11-12T23:36:20.391Z,49.75
2022-11-12T23:38:47.576Z,51.28
2022-11-12T23:41:17.122Z,55.65
2022-11-12T23:43:44.332Z,47.38
2022-11-12T23:46:11.684Z,45.95
2022-11-12T23:48:38.439Z,48.60
2022-11-12T23:51:10.715Z,53.10
2022-11-12T23:53:37.860Z,48.45
2022-11-12T23:56:05.947Z,47.10
2022-11-12T23:58:32.636Z,50.15
